Change Of Latitude — WDF6082 — position and weather

sailwx.info

Track history (hours):
 
Tides and Currents Weather Stations Pressure Air Temp Water Temp Dewpoint Dewpoint Depression Visibility Wind Speed Wind Dir Waves Ship Positions

Change Of Latitude

Owner: Donrah LLC, Bellingham, WA. More information available from US FCC via Universal Licensing System and Coast Guard Vessel Documentation Center.

Last reported at 2017-May-31 14:55 UTC. Time now 2017-Jun-29 12:42 UTC.
Position N 51°51' W 128°14'.
Warning: this ship's position is 28 days out of date.

Length 15 m.

Type: Pleasure craft. MMSI: 367470440.

Date/timePositionNaut miles runAvg speedWind from/ knotsBaromVisibWave heightAir tempDewpointWater temp
2017-May-31 14:55N 51°51' W 128°14'1 0.6
2017-May-31 13:19N 51°50' W 128°13'0 0.0
2017-May-31 03:43N 51°50' W 128°13'0 0.0
2017-May-31 03:19N 51°50' W 128°13'0 0.0
2017-May-31 02:55N 51°50' W 128°13'0 0.0
2017-May-31 02:19N 51°50' W 128°13'3 0.5
2017-May-30 19:16N 51°48' W 128°09'2 8.0
2017-May-30 18:58N 51°45' W 128°09'3 7.3
2017-May-30 18:30N 51°43' W 128°06'4 7.0
2017-May-30 18:00N 51°39' W 128°04'4 8.4
2017-May-30 17:30N 51°39' W 127°57'4 8.4
2017-May-30 17:00N 51°38' W 127°51'4 6.0
2017-May-30 16:24N 51°39' W 127°46'2 5.1
2017-May-30 16:00N 51°37' W 127°45'3 4.5
2017-May-30 15:16N 51°34' W 127°48'2 8.3
2017-May-30 15:00N 51°32' W 127°48'4 7.9
2017-May-30 14:30N 51°29' W 127°46'1 0.0
2017-May-29 19:25N 51°29' W 127°45'0 0.3
2017-May-29 18:59N 51°29' W 127°45'25 7.7
2017-May-29 15:40N 51°04' W 127°41'2 9.6
2017-May-29 15:29N 51°02' W 127°39'5 9.7
2017-May-29 14:58N 50°58' W 127°35'4 9.6
2017-May-29 14:30N 50°54' W 127°31'  
Track history (hours):
 
Tides and Currents Weather Stations Pressure Air Temp Water Temp Dewpoint Dewpoint Depression Visibility Wind Speed Wind Dir Waves Ship Positions

Change Of Latitude

Owner: Donrah LLC, Bellingham, WA. More information available from US FCC via Universal Licensing System and Coast Guard Vessel Documentation Center.

Last reported at 2017-May-31 14:55 UTC. Time now 2017-Jun-29 12:42 UTC.
Position N 51°51' W 128°14'.
Warning: this ship's position is 28 days out of date.

Length 15 m.

Type: Pleasure craft. MMSI: 367470440.

Date/timePositionNaut miles runAvg speedWind from/ knotsBaromVisibWave heightAir tempDewpointWater temp
2017-May-31 14:55N 51°51' W 128°14'1 0.6
2017-May-31 13:19N 51°50' W 128°13'0 0.0
2017-May-31 03:43N 51°50' W 128°13'0 0.0
2017-May-31 03:19N 51°50' W 128°13'0 0.0
2017-May-31 02:55N 51°50' W 128°13'0 0.0
2017-May-31 02:19N 51°50' W 128°13'3 0.5
2017-May-30 19:16N 51°48' W 128°09'2 8.0
2017-May-30 18:58N 51°45' W 128°09'3 7.3
2017-May-30 18:30N 51°43' W 128°06'4 7.0
2017-May-30 18:00N 51°39' W 128°04'4 8.4
2017-May-30 17:30N 51°39' W 127°57'4 8.4
2017-May-30 17:00N 51°38' W 127°51'4 6.0
2017-May-30 16:24N 51°39' W 127°46'2 5.1
2017-May-30 16:00N 51°37' W 127°45'3 4.5
2017-May-30 15:16N 51°34' W 127°48'2 8.3
2017-May-30 15:00N 51°32' W 127°48'4 7.9
2017-May-30 14:30N 51°29' W 127°46'1 0.0
2017-May-29 19:25N 51°29' W 127°45'0 0.3
2017-May-29 18:59N 51°29' W 127°45'25 7.7
2017-May-29 15:40N 51°04' W 127°41'2 9.6
2017-May-29 15:29N 51°02' W 127°39'5 9.7
2017-May-29 14:58N 50°58' W 127°35'4 9.6
2017-May-29 14:30N 50°54' W 127°31'  

Dump ship's entire track history